sensor_id;sensor_type;location;lat;lon;timestamp;temperature;humidity
13944;DHT22;7044;53.286;8.534;2023-12-29T00:01:42;10.10;99.90
13944;DHT22;7044;53.286;8.534;2023-12-29T00:04:09;10.20;99.90
13944;DHT22;7044;53.286;8.534;2023-12-29T00:06:37;10.20;99.90
13944;DHT22;7044;53.286;8.534;2023-12-29T00:09:04;10.20;99.90
13944;DHT22;7044;53.286;8.534;2023-12-29T00:11:32;10.20;99.90
13944;DHT22;7044;53.286;8.534;2023-12-29T00:13:59;10.20;99.90
13944;DHT22;7044;53.286;8.534;2023-12-29T00:16:28;10.20;99.90
13944;DHT22;7044;53.286;8.534;2023-12-29T00:18:55;10.20;99.90
13944;DHT22;7044;53.286;8.534;2023-12-29T00:21:22;10.30;99.90
13944;DHT22;7044;53.286;8.534;2023-12-29T00:23:49;10.20;99.90
13944;DHT22;7044;53.286;8.534;2023-12-29T00:26:16;10.20;99.90
13944;DHT22;7044;53.286;8.534;2023-12-29T00:28:44;10.20;99.90
13944;DHT22;7044;53.286;8.534;2023-12-29T00:31:14;10.20;99.90
13944;DHT22;7044;53.286;8.534;2023-12-29T00:33:42;10.30;99.90
13944;DHT22;7044;53.286;8.534;2023-12-29T00:36:14;10.40;99.90
13944;DHT22;7044;53.286;8.534;2023-12-29T00:41:08;10.20;99.90
13944;DHT22;7044;53.286;8.534;2023-12-29T00:43:35;10.10;99.90
13944;DHT22;7044;53.286;8.534;2023-12-29T00:46:03;10.10;99.90
13944;DHT22;7044;53.286;8.534;2023-12-29T00:48:30;10.20;99.90
13944;DHT22;7044;53.286;8.534;2023-12-29T00:51:00;10.20;99.90
13944;DHT22;7044;53.286;8.534;2023-12-29T00:53:27;10.20;99.90
13944;DHT22;7044;53.286;8.534;2023-12-29T00:55:54;10.20;99.90
13944;DHT22;7044;53.286;8.534;2023-12-29T00:58:21;10.70;99.90
13944;DHT22;7044;53.286;8.534;2023-12-29T01:00:48;10.20;99.90
13944;DHT22;7044;53.286;8.534;2023-12-29T01:03:15;10.20;99.90
13944;DHT22;7044;53.286;8.534;2023-12-29T01:05:42;10.10;99.90
13944;DHT22;7044;53.286;8.534;2023-12-29T01:08:10;10.80;99.90
13944;DHT22;7044;53.286;8.534;2023-12-29T01:10:37;10.20;99.90
13944;DHT22;7044;53.286;8.534;2023-12-29T01:13:04;10.20;99.90
13944;DHT22;7044;53.286;8.534;2023-12-29T01:15:31;10.20;99.90
13944;DHT22;7044;53.286;8.534;2023-12-29T01:17:58;10.00;99.90
13944;DHT22;7044;53.286;8.534;2023-12-29T01:20:25;10.20;99.90
13944;DHT22;7044;53.286;8.534;2023-12-29T01:22:51;10.20;99.90
13944;DHT22;7044;53.286;8.534;2023-12-29T01:25:20;10.20;99.90
13944;DHT22;7044;53.286;8.534;2023-12-29T01:27:46;10.10;99.90
13944;DHT22;7044;53.286;8.534;2023-12-29T01:30:13;10.10;99.90
13944;DHT22;7044;53.286;8.534;2023-12-29T01:32:40;10.10;99.90
13944;DHT22;7044;53.286;8.534;2023-12-29T01:35:08;10.00;99.90
13944;DHT22;7044;53.286;8.534;2023-12-29T01:37:35;10.00;99.90
13944;DHT22;7044;53.286;8.534;2023-12-29T01:40:02;10.40;99.90
13944;DHT22;7044;53.286;8.534;2023-12-29T01:42:30;10.10;99.90
13944;DHT22;7044;53.286;8.534;2023-12-29T01:44:57;10.00;99.90
13944;DHT22;7044;53.286;8.534;2023-12-29T01:47:24;10.00;99.90
13944;DHT22;7044;53.286;8.534;2023-12-29T01:49:51;10.10;99.90
13944;DHT22;7044;53.286;8.534;2023-12-29T01:52:18;10.10;99.90
13944;DHT22;7044;53.286;8.534;2023-12-29T01:54:47;10.00;99.90
13944;DHT22;7044;53.286;8.534;2023-12-29T01:57:15;10.10;99.90
13944;DHT22;7044;53.286;8.534;2023-12-29T01:59:44;8.90;99.90
13944;DHT22;7044;53.286;8.534;2023-12-29T02:02:13;10.00;99.90
13944;DHT22;7044;53.286;8.534;2023-12-29T02:04:41;10.00;99.90
13944;DHT22;7044;53.286;8.534;2023-12-29T02:07:09;10.00;99.90
13944;DHT22;7044;53.286;8.534;2023-12-29T02:09:36;10.00;99.90
13944;DHT22;7044;53.286;8.534;2023-12-29T02:12:03;9.90;99.90
13944;DHT22;7044;53.286;8.534;2023-12-29T02:14:31;9.90;99.90
13944;DHT22;7044;53.286;8.534;2023-12-29T02:17:05;9.90;99.90
13944;DHT22;7044;53.286;8.534;2023-12-29T02:19:38;10.00;99.90
13944;DHT22;7044;53.286;8.534;2023-12-29T02:22:06;9.90;99.90
13944;DHT22;7044;53.286;8.534;2023-12-29T02:24:33;9.90;99.90
13944;DHT22;7044;53.286;8.534;2023-12-29T02:27:11;9.90;99.90
13944;DHT22;7044;53.286;8.534;2023-12-29T02:29:43;9.90;99.90
13944;DHT22;7044;53.286;8.534;2023-12-29T02:32:13;9.90;99.90
13944;DHT22;7044;53.286;8.534;2023-12-29T02:34:43;9.80;99.90
13944;DHT22;7044;53.286;8.534;2023-12-29T02:37:12;9.80;99.90
13944;DHT22;7044;53.286;8.534;2023-12-29T02:39:39;9.70;99.90
13944;DHT22;7044;53.286;8.534;2023-12-29T02:42:07;9.70;99.90
13944;DHT22;7044;53.286;8.534;2023-12-29T02:44:34;9.70;99.90
13944;DHT22;7044;53.286;8.534;2023-12-29T02:47:01;9.70;99.90
13944;DHT22;7044;53.286;8.534;2023-12-29T02:49:29;9.50;99.90
13944;DHT22;7044;53.286;8.534;2023-12-29T02:51:56;9.70;99.90
13944;DHT22;7044;53.286;8.534;2023-12-29T02:54:23;9.70;99.90
13944;DHT22;7044;53.286;8.534;2023-12-29T02:56:50;9.70;99.90
13944;DHT22;7044;53.286;8.534;2023-12-29T02:59:18;9.60;99.90
13944;DHT22;7044;53.286;8.534;2023-12-29T03:01:45;9.60;99.90
13944;DHT22;7044;53.286;8.534;2023-12-29T03:04:12;9.50;99.90
13944;DHT22;7044;53.286;8.534;2023-12-29T03:06:40;9.60;99.90
13944;DHT22;7044;53.286;8.534;2023-12-29T03:09:07;9.30;99.90
13944;DHT22;7044;53.286;8.534;2023-12-29T03:11:34;9.30;99.90
13944;DHT22;7044;53.286;8.534;2023-12-29T03:14:01;8.70;99.90
13944;DHT22;7044;53.286;8.534;2023-12-29T03:16:29;8.60;99.90
13944;DHT22;7044;53.286;8.534;2023-12-29T03:18:56;8.60;99.90
13944;DHT22;7044;53.286;8.534;2023-12-29T03:21:23;8.40;99.90
13944;DHT22;7044;53.286;8.534;2023-12-29T03:23:50;8.40;99.90
13944;DHT22;7044;53.286;8.534;2023-12-29T03:26:17;8.30;99.90
13944;DHT22;7044;53.286;8.534;2023-12-29T03:28:44;8.40;99.90
13944;DHT22;7044;53.286;8.534;2023-12-29T03:31:10;8.30;99.90
13944;DHT22;7044;53.286;8.534;2023-12-29T03:33:39;8.20;99.90
13944;DHT22;7044;53.286;8.534;2023-12-29T03:36:06;8.20;99.90
13944;DHT22;7044;53.286;8.534;2023-12-29T03:38:35;8.20;99.90
13944;DHT22;7044;53.286;8.534;2023-12-29T03:41:02;8.10;99.90
13944;DHT22;7044;53.286;8.534;2023-12-29T03:43:29;8.10;99.90
13944;DHT22;7044;53.286;8.534;2023-12-29T03:45:55;8.10;99.90
13944;DHT22;7044;53.286;8.534;2023-12-29T03:48:22;8.10;99.90
13944;DHT22;7044;53.286;8.534;2023-12-29T03:50:51;8.00;99.90
13944;DHT22;7044;53.286;8.534;2023-12-29T03:53:17;8.00;99.90
13944;DHT22;7044;53.286;8.534;2023-12-29T03:55:44;8.00;99.90
13944;DHT22;7044;53.286;8.534;2023-12-29T03:58:11;7.90;99.90
13944;DHT22;7044;53.286;8.534;2023-12-29T04:00:38;7.90;99.90
13944;DHT22;7044;53.286;8.534;2023-12-29T04:05:34;7.90;99.90
13944;DHT22;7044;53.286;8.534;2023-12-29T04:08:03;7.80;99.90
13944;DHT22;7044;53.286;8.534;2023-12-29T04:10:30;8.00;99.90
13944;DHT22;7044;53.286;8.534;2023-12-29T04:12:57;8.00;99.90
13944;DHT22;7044;53.286;8.534;2023-12-29T04:15:24;8.20;99.90
13944;DHT22;7044;53.286;8.534;2023-12-29T04:17:51;8.10;99.90
13944;DHT22;7044;53.286;8.534;2023-12-29T04:20:17;8.00;99.90
13944;DHT22;7044;53.286;8.534;2023-12-29T04:22:45;8.10;99.90
13944;DHT22;7044;53.286;8.534;2023-12-29T04:25:13;8.00;99.90
13944;DHT22;7044;53.286;8.534;2023-12-29T04:27:40;8.10;99.90
13944;DHT22;7044;53.286;8.534;2023-12-29T04:30:08;7.10;99.90
13944;DHT22;7044;53.286;8.534;2023-12-29T04:32:35;8.00;99.90
13944;DHT22;7044;53.286;8.534;2023-12-29T04:35:02;8.00;99.90
13944;DHT22;7044;53.286;8.534;2023-12-29T04:37:29;8.00;99.90
13944;DHT22;7044;53.286;8.534;2023-12-29T04:39:56;8.00;99.90
13944;DHT22;7044;53.286;8.534;2023-12-29T04:42:24;8.00;99.90
13944;DHT22;7044;53.286;8.534;2023-12-29T04:44:51;9.20;99.90
13944;DHT22;7044;53.286;8.534;2023-12-29T04:47:18;8.10;99.90
13944;DHT22;7044;53.286;8.534;2023-12-29T04:49:45;8.10;99.90
13944;DHT22;7044;53.286;8.534;2023-12-29T04:52:12;8.20;99.90
13944;DHT22;7044;53.286;8.534;2023-12-29T04:54:39;8.30;99.90
13944;DHT22;7044;53.286;8.534;2023-12-29T04:57:05;8.40;99.90
13944;DHT22;7044;53.286;8.534;2023-12-29T04:59:34;8.40;99.90
13944;DHT22;7044;53.286;8.534;2023-12-29T05:02:01;8.30;99.90
13944;DHT22;7044;53.286;8.534;2023-12-29T05:04:27;8.40;99.90
13944;DHT22;7044;53.286;8.534;2023-12-29T05:06:54;8.50;99.90
13944;DHT22;7044;53.286;8.534;2023-12-29T05:09:21;8.50;99.90
13944;DHT22;7044;53.286;8.534;2023-12-29T05:11:48;8.50;99.90
13944;DHT22;7044;53.286;8.534;2023-12-29T05:14:15;8.60;99.90
13944;DHT22;7044;53.286;8.534;2023-12-29T05:16:44;8.60;99.90
13944;DHT22;7044;53.286;8.534;2023-12-29T05:19:11;8.60;99.90
13944;DHT22;7044;53.286;8.534;2023-12-29T05:21:38;7.80;99.90
13944;DHT22;7044;53.286;8.534;2023-12-29T05:24:05;8.80;99.90
13944;DHT22;7044;53.286;8.534;2023-12-29T05:26:32;8.90;99.90
13944;DHT22;7044;53.286;8.534;2023-12-29T05:28:59;8.90;99.90
13944;DHT22;7044;53.286;8.534;2023-12-29T05:31:25;8.90;99.90
13944;DHT22;7044;53.286;8.534;2023-12-29T05:33:54;8.90;99.90
13944;DHT22;7044;53.286;8.534;2023-12-29T05:36:21;8.90;99.90
13944;DHT22;7044;53.286;8.534;2023-12-29T05:38:48;8.90;99.90
13944;DHT22;7044;53.286;8.534;2023-12-29T05:41:15;8.80;99.90
13944;DHT22;7044;53.286;8.534;2023-12-29T05:43:42;8.90;99.90
13944;DHT22;7044;53.286;8.534;2023-12-29T05:46:09;8.90;99.90
13944;DHT22;7044;53.286;8.534;2023-12-29T05:48:37;9.00;99.90
13944;DHT22;7044;53.286;8.534;2023-12-29T05:51:08;8.90;99.90
13944;DHT22;7044;53.286;8.534;2023-12-29T05:53:35;9.00;99.90
13944;DHT22;7044;53.286;8.534;2023-12-29T05:56:02;9.10;99.90
13944;DHT22;7044;53.286;8.534;2023-12-29T05:58:28;9.00;99.90
13944;DHT22;7044;53.286;8.534;2023-12-29T06:00:55;9.10;99.90
13944;DHT22;7044;53.286;8.534;2023-12-29T06:03:23;9.10;99.90
13944;DHT22;7044;53.286;8.534;2023-12-29T06:05:50;9.10;99.90
13944;DHT22;7044;53.286;8.534;2023-12-29T06:08:18;9.10;99.90
13944;DHT22;7044;53.286;8.534;2023-12-29T06:10:45;9.20;99.90
13944;DHT22;7044;53.286;8.534;2023-12-29T06:13:12;9.20;99.90
13944;DHT22;7044;53.286;8.534;2023-12-29T06:15:40;9.20;99.90
13944;DHT22;7044;53.286;8.534;2023-12-29T06:18:07;9.20;99.90
13944;DHT22;7044;53.286;8.534;2023-12-29T06:20:34;9.20;99.90
13944;DHT22;7044;53.286;8.534;2023-12-29T06:23:01;9.20;99.90
13944;DHT22;7044;53.286;8.534;2023-12-29T06:25:29;9.20;99.90
13944;DHT22;7044;53.286;8.534;2023-12-29T06:27:56;9.20;99.90
13944;DHT22;7044;53.286;8.534;2023-12-29T06:30:23;9.30;99.90
13944;DHT22;7044;53.286;8.534;2023-12-29T06:32:50;9.30;99.90
13944;DHT22;7044;53.286;8.534;2023-12-29T06:35:17;9.30;99.90
13944;DHT22;7044;53.286;8.534;2023-12-29T06:37:44;8.90;99.90
13944;DHT22;7044;53.286;8.534;2023-12-29T06:40:12;9.30;99.90
13944;DHT22;7044;53.286;8.534;2023-12-29T06:42:40;9.30;99.90
13944;DHT22;7044;53.286;8.534;2023-12-29T06:45:08;9.30;99.90
13944;DHT22;7044;53.286;8.534;2023-12-29T06:47:35;9.30;99.90
13944;DHT22;7044;53.286;8.534;2023-12-29T06:50:02;9.30;99.90
13944;DHT22;7044;53.286;8.534;2023-12-29T06:52:30;10.40;99.90
13944;DHT22;7044;53.286;8.534;2023-12-29T06:54:59;9.30;99.90
13944;DHT22;7044;53.286;8.534;2023-12-29T06:57:26;9.40;99.90
13944;DHT22;7044;53.286;8.534;2023-12-29T06:59:55;9.30;99.90
13944;DHT22;7044;53.286;8.534;2023-12-29T07:02:22;9.30;99.90
13944;DHT22;7044;53.286;8.534;2023-12-29T07:04:49;9.30;99.90
13944;DHT22;7044;53.286;8.534;2023-12-29T07:07:16;9.30;99.90
13944;DHT22;7044;53.286;8.534;2023-12-29T07:09:43;9.30;99.90
13944;DHT22;7044;53.286;8.534;2023-12-29T07:12:10;9.30;99.90
13944;DHT22;7044;53.286;8.534;2023-12-29T07:14:37;9.30;99.90
13944;DHT22;7044;53.286;8.534;2023-12-29T07:17:05;9.30;99.90
13944;DHT22;7044;53.286;8.534;2023-12-29T07:19:32;9.30;99.90
13944;DHT22;7044;53.286;8.534;2023-12-29T07:22:03;9.30;99.90
13944;DHT22;7044;53.286;8.534;2023-12-29T07:24:30;9.30;99.90
13944;DHT22;7044;53.286;8.534;2023-12-29T07:26:57;9.20;99.90
13944;DHT22;7044;53.286;8.534;2023-12-29T07:29:24;9.30;99.90
13944;DHT22;7044;53.286;8.534;2023-12-29T07:31:51;9.30;99.90
13944;DHT22;7044;53.286;8.534;2023-12-29T07:34:20;9.30;99.90
13944;DHT22;7044;53.286;8.534;2023-12-29T07:36:47;9.20;99.90
13944;DHT22;7044;53.286;8.534;2023-12-29T07:39:14;9.20;99.90
13944;DHT22;7044;53.286;8.534;2023-12-29T07:41:41;9.20;99.90
13944;DHT22;7044;53.286;8.534;2023-12-29T07:44:10;8.80;99.90
13944;DHT22;7044;53.286;8.534;2023-12-29T07:46:36;9.20;99.90
13944;DHT22;7044;53.286;8.534;2023-12-29T07:49:03;9.20;99.90
13944;DHT22;7044;53.286;8.534;2023-12-29T07:51:32;9.10;99.90
13944;DHT22;7044;53.286;8.534;2023-12-29T07:53:59;9.20;99.90
13944;DHT22;7044;53.286;8.534;2023-12-29T07:56:26;9.20;99.90
13944;DHT22;7044;53.286;8.534;2023-12-29T07:58:53;9.20;99.90
13944;DHT22;7044;53.286;8.534;2023-12-29T08:01:20;9.20;99.90
13944;DHT22;7044;53.286;8.534;2023-12-29T08:03:46;9.20;99.90
13944;DHT22;7044;53.286;8.534;2023-12-29T08:06:13;9.20;99.90
13944;DHT22;7044;53.286;8.534;2023-12-29T08:08:42;9.20;99.90
13944;DHT22;7044;53.286;8.534;2023-12-29T08:11:13;9.30;99.90
13944;DHT22;7044;53.286;8.534;2023-12-29T08:13:40;9.30;99.90
13944;DHT22;7044;53.286;8.534;2023-12-29T08:16:07;9.30;99.90
13944;DHT22;7044;53.286;8.534;2023-12-29T08:18:34;9.20;99.90
13944;DHT22;7044;53.286;8.534;2023-12-29T08:23:29;8.70;99.90
13944;DHT22;7044;53.286;8.534;2023-12-29T08:25:57;9.20;99.90
13944;DHT22;7044;53.286;8.534;2023-12-29T08:28:25;9.00;99.90
13944;DHT22;7044;53.286;8.534;2023-12-29T08:30:52;9.00;99.90
13944;DHT22;7044;53.286;8.534;2023-12-29T08:33:19;8.50;99.90
13944;DHT22;7044;53.286;8.534;2023-12-29T08:35:46;8.50;99.90
13944;DHT22;7044;53.286;8.534;2023-12-29T08:38:13;7.90;99.90
13944;DHT22;7044;53.286;8.534;2023-12-29T08:40:40;7.80;99.90
13944;DHT22;7044;53.286;8.534;2023-12-29T08:43:09;7.80;99.90
13944;DHT22;7044;53.286;8.534;2023-12-29T08:45:36;7.80;99.90
13944;DHT22;7044;53.286;8.534;2023-12-29T08:48:04;7.50;99.90
13944;DHT22;7044;53.286;8.534;2023-12-29T08:50:31;7.50;99.90
13944;DHT22;7044;53.286;8.534;2023-12-29T08:52:58;7.50;99.90
13944;DHT22;7044;53.286;8.534;2023-12-29T08:55:25;7.40;99.90
13944;DHT22;7044;53.286;8.534;2023-12-29T08:57:52;7.50;99.90
13944;DHT22;7044;53.286;8.534;2023-12-29T09:00:20;7.70;99.90
13944;DHT22;7044;53.286;8.534;2023-12-29T09:02:47;7.70;99.90
13944;DHT22;7044;53.286;8.534;2023-12-29T09:05:14;7.90;99.90
13944;DHT22;7044;53.286;8.534;2023-12-29T09:07:42;8.30;99.90
13944;DHT22;7044;53.286;8.534;2023-12-29T09:10:09;8.20;99.90
13944;DHT22;7044;53.286;8.534;2023-12-29T09:12:38;8.30;99.90
13944;DHT22;7044;53.286;8.534;2023-12-29T09:15:05;8.40;99.90
13944;DHT22;7044;53.286;8.534;2023-12-29T09:17:34;8.50;99.90
13944;DHT22;7044;53.286;8.534;2023-12-29T09:20:01;8.50;99.90
13944;DHT22;7044;53.286;8.534;2023-12-29T09:22:28;8.50;99.90
13944;DHT22;7044;53.286;8.534;2023-12-29T09:24:55;8.60;99.90
13944;DHT22;7044;53.286;8.534;2023-12-29T09:27:22;8.60;99.90
13944;DHT22;7044;53.286;8.534;2023-12-29T09:29:50;8.60;99.90
13944;DHT22;7044;53.286;8.534;2023-12-29T09:34:45;8.70;99.90
13944;DHT22;7044;53.286;8.534;2023-12-29T09:37:12;8.70;99.90
13944;DHT22;7044;53.286;8.534;2023-12-29T09:39:39;8.70;99.90
13944;DHT22;7044;53.286;8.534;2023-12-29T09:42:07;8.70;99.90
13944;DHT22;7044;53.286;8.534;2023-12-29T09:44:36;8.80;99.90
13944;DHT22;7044;53.286;8.534;2023-12-29T09:47:04;8.80;99.90
13944;DHT22;7044;53.286;8.534;2023-12-29T09:49:37;8.10;99.90
13944;DHT22;7044;53.286;8.534;2023-12-29T09:52:07;8.90;99.90
13944;DHT22;7044;53.286;8.534;2023-12-29T09:54:36;9.00;99.90
13944;DHT22;7044;53.286;8.534;2023-12-29T09:57:04;9.00;99.90
13944;DHT22;7044;53.286;8.534;2023-12-29T09:59:34;9.00;99.90
13944;DHT22;7044;53.286;8.534;2023-12-29T10:02:03;9.10;99.90
13944;DHT22;7044;53.286;8.534;2023-12-29T10:04:31;9.00;99.90
13944;DHT22;7044;53.286;8.534;2023-12-29T10:07:02;9.10;99.90
13944;DHT22;7044;53.286;8.534;2023-12-29T10:09:34;8.10;99.90
13944;DHT22;7044;53.286;8.534;2023-12-29T10:12:02;9.10;99.90
13944;DHT22;7044;53.286;8.534;2023-12-29T10:14:39;9.10;99.90
13944;DHT22;7044;53.286;8.534;2023-12-29T10:17:12;9.10;99.90
13944;DHT22;7044;53.286;8.534;2023-12-29T10:19:40;9.10;99.90
13944;DHT22;7044;53.286;8.534;2023-12-29T10:22:14;9.10;99.90
13944;DHT22;7044;53.286;8.534;2023-12-29T10:24:43;9.10;99.90
13944;DHT22;7044;53.286;8.534;2023-12-29T10:27:11;9.10;99.90
13944;DHT22;7044;53.286;8.534;2023-12-29T10:29:38;8.80;99.90
13944;DHT22;7044;53.286;8.534;2023-12-29T10:32:06;8.90;99.90
13944;DHT22;7044;53.286;8.534;2023-12-29T10:34:33;8.90;99.90
13944;DHT22;7044;53.286;8.534;2023-12-29T10:37:00;8.80;99.90
13944;DHT22;7044;53.286;8.534;2023-12-29T10:39:30;9.90;99.90
13944;DHT22;7044;53.286;8.534;2023-12-29T10:42:05;8.90;99.90
13944;DHT22;7044;53.286;8.534;2023-12-29T10:44:34;6.80;99.90
13944;DHT22;7044;53.286;8.534;2023-12-29T10:47:07;8.80;99.90
13944;DHT22;7044;53.286;8.534;2023-12-29T10:49:34;8.90;99.90
13944;DHT22;7044;53.286;8.534;2023-12-29T10:52:11;9.00;99.90
13944;DHT22;7044;53.286;8.534;2023-12-29T10:54:39;8.40;99.90
13944;DHT22;7044;53.286;8.534;2023-12-29T10:57:08;8.90;99.90
13944;DHT22;7044;53.286;8.534;2023-12-29T10:59:37;8.90;99.90
13944;DHT22;7044;53.286;8.534;2023-12-29T11:02:04;8.90;99.90
13944;DHT22;7044;53.286;8.534;2023-12-29T11:04:31;8.90;99.90
13944;DHT22;7044;53.286;8.534;2023-12-29T11:06:58;8.80;99.90
13944;DHT22;7044;53.286;8.534;2023-12-29T11:09:28;9.00;99.90
13944;DHT22;7044;53.286;8.534;2023-12-29T11:11:57;8.90;99.90
13944;DHT22;7044;53.286;8.534;2023-12-29T11:14:27;9.10;99.90
13944;DHT22;7044;53.286;8.534;2023-12-29T11:16:55;10.40;99.90
13944;DHT22;7044;53.286;8.534;2023-12-29T11:19:22;9.00;99.90
13944;DHT22;7044;53.286;8.534;2023-12-29T11:21:51;8.40;99.90
13944;DHT22;7044;53.286;8.534;2023-12-29T11:24:19;9.00;99.90
13944;DHT22;7044;53.286;8.534;2023-12-29T11:26:46;9.10;99.90
13944;DHT22;7044;53.286;8.534;2023-12-29T11:29:16;9.10;99.90
13944;DHT22;7044;53.286;8.534;2023-12-29T11:31:46;9.10;99.90
13944;DHT22;7044;53.286;8.534;2023-12-29T11:34:25;9.10;99.90
13944;DHT22;7044;53.286;8.534;2023-12-29T11:36:59;9.00;99.90
13944;DHT22;7044;53.286;8.534;2023-12-29T11:39:37;9.00;99.90
13944;DHT22;7044;53.286;8.534;2023-12-29T11:42:12;9.00;99.90
13944;DHT22;7044;53.286;8.534;2023-12-29T11:44:40;9.00;99.90
13944;DHT22;7044;53.286;8.534;2023-12-29T11:47:34;9.00;99.90
13944;DHT22;7044;53.286;8.534;2023-12-29T11:50:02;9.10;99.90
13944;DHT22;7044;53.286;8.534;2023-12-29T11:52:33;9.10;99.90
13944;DHT22;7044;53.286;8.534;2023-12-29T11:55:07;9.10;99.90
13944;DHT22;7044;53.286;8.534;2023-12-29T11:57:35;9.20;99.90
13944;DHT22;7044;53.286;8.534;2023-12-29T12:00:04;9.20;99.90
13944;DHT22;7044;53.286;8.534;2023-12-29T12:02:33;9.20;99.90
13944;DHT22;7044;53.286;8.534;2023-12-29T12:05:00;9.20;99.90
13944;DHT22;7044;53.286;8.534;2023-12-29T12:07:56;9.30;99.90
13944;DHT22;7044;53.286;8.534;2023-12-29T12:10:31;9.30;99.90
13944;DHT22;7044;53.286;8.534;2023-12-29T12:12:59;9.40;99.90
13944;DHT22;7044;53.286;8.534;2023-12-29T12:15:33;9.70;99.90
13944;DHT22;7044;53.286;8.534;2023-12-29T12:18:02;9.60;99.90
13944;DHT22;7044;53.286;8.534;2023-12-29T12:20:31;9.70;99.90
13944;DHT22;7044;53.286;8.534;2023-12-29T12:23:00;9.80;99.90
13944;DHT22;7044;53.286;8.534;2023-12-29T12:25:27;9.70;99.90
13944;DHT22;7044;53.286;8.534;2023-12-29T12:27:55;9.60;99.90
13944;DHT22;7044;53.286;8.534;2023-12-29T12:30:22;9.40;99.90
13944;DHT22;7044;53.286;8.534;2023-12-29T12:32:57;9.10;99.90
13944;DHT22;7044;53.286;8.534;2023-12-29T12:35:26;9.10;99.90
13944;DHT22;7044;53.286;8.534;2023-12-29T12:38:07;9.00;99.90
13944;DHT22;7044;53.286;8.534;2023-12-29T12:40:34;9.00;99.90
13944;DHT22;7044;53.286;8.534;2023-12-29T12:43:01;9.00;99.90
13944;DHT22;7044;53.286;8.534;2023-12-29T12:45:29;9.00;99.90
13944;DHT22;7044;53.286;8.534;2023-12-29T12:48:02;9.00;99.90
13944;DHT22;7044;53.286;8.534;2023-12-29T12:50:31;9.10;99.90
13944;DHT22;7044;53.286;8.534;2023-12-29T12:52:58;9.30;99.90
13944;DHT22;7044;53.286;8.534;2023-12-29T12:55:25;9.20;99.90
13944;DHT22;7044;53.286;8.534;2023-12-29T12:57:54;9.30;99.90
13944;DHT22;7044;53.286;8.534;2023-12-29T13:00:22;9.50;99.90
13944;DHT22;7044;53.286;8.534;2023-12-29T13:02:49;9.50;99.90
13944;DHT22;7044;53.286;8.534;2023-12-29T13:05:16;9.50;99.90
13944;DHT22;7044;53.286;8.534;2023-12-29T13:07:45;9.30;99.90
13944;DHT22;7044;53.286;8.534;2023-12-29T13:10:12;9.50;99.90
13944;DHT22;7044;53.286;8.534;2023-12-29T13:12:39;9.40;99.90
13944;DHT22;7044;53.286;8.534;2023-12-29T13:15:06;9.50;99.90
13944;DHT22;7044;53.286;8.534;2023-12-29T13:17:34;9.70;99.90
13944;DHT22;7044;53.286;8.534;2023-12-29T13:20:01;9.40;99.90
13944;DHT22;7044;53.286;8.534;2023-12-29T13:22:30;9.40;99.90
13944;DHT22;7044;53.286;8.534;2023-12-29T13:24:59;9.40;99.90
13944;DHT22;7044;53.286;8.534;2023-12-29T13:27:27;9.40;99.90
13944;DHT22;7044;53.286;8.534;2023-12-29T13:29:54;9.40;99.90
13944;DHT22;7044;53.286;8.534;2023-12-29T13:32:21;9.50;99.90
13944;DHT22;7044;53.286;8.534;2023-12-29T13:34:53;9.40;99.90
13944;DHT22;7044;53.286;8.534;2023-12-29T13:37:25;9.40;99.90
13944;DHT22;7044;53.286;8.534;2023-12-29T13:39:57;9.40;99.90
13944;DHT22;7044;53.286;8.534;2023-12-29T13:42:29;9.40;99.90
13944;DHT22;7044;53.286;8.534;2023-12-29T13:44:57;9.40;99.90
13944;DHT22;7044;53.286;8.534;2023-12-29T13:47:26;9.80;99.90
13944;DHT22;7044;53.286;8.534;2023-12-29T13:49:53;9.50;99.90
13944;DHT22;7044;53.286;8.534;2023-12-29T13:52:20;9.50;99.90
13944;DHT22;7044;53.286;8.534;2023-12-29T13:54:47;9.40;99.90
13944;DHT22;7044;53.286;8.534;2023-12-29T13:57:15;9.40;99.90
13944;DHT22;7044;53.286;8.534;2023-12-29T13:59:43;9.40;99.90
13944;DHT22;7044;53.286;8.534;2023-12-29T14:02:23;9.40;99.90
13944;DHT22;7044;53.286;8.534;2023-12-29T14:05:09;9.40;99.90
13944;DHT22;7044;53.286;8.534;2023-12-29T14:07:37;9.40;99.90
13944;DHT22;7044;53.286;8.534;2023-12-29T14:10:11;9.40;99.90
13944;DHT22;7044;53.286;8.534;2023-12-29T14:12:38;9.40;99.90
13944;DHT22;7044;53.286;8.534;2023-12-29T14:15:08;9.40;99.90
13944;DHT22;7044;53.286;8.534;2023-12-29T14:17:35;9.40;99.90
13944;DHT22;7044;53.286;8.534;2023-12-29T14:20:04;9.30;99.90
13944;DHT22;7044;53.286;8.534;2023-12-29T14:22:32;9.30;99.90
13944;DHT22;7044;53.286;8.534;2023-12-29T14:25:04;9.40;99.90
13944;DHT22;7044;53.286;8.534;2023-12-29T14:27:31;9.40;99.90
13944;DHT22;7044;53.286;8.534;2023-12-29T14:29:58;9.40;99.90
13944;DHT22;7044;53.286;8.534;2023-12-29T14:32:26;9.40;99.90
13944;DHT22;7044;53.286;8.534;2023-12-29T14:34:54;9.40;99.90
13944;DHT22;7044;53.286;8.534;2023-12-29T14:37:21;9.20;99.90
13944;DHT22;7044;53.286;8.534;2023-12-29T14:39:49;9.30;99.90
13944;DHT22;7044;53.286;8.534;2023-12-29T14:42:16;9.30;99.90
13944;DHT22;7044;53.286;8.534;2023-12-29T14:44:46;9.90;99.90
13944;DHT22;7044;53.286;8.534;2023-12-29T14:47:14;9.30;99.90
13944;DHT22;7044;53.286;8.534;2023-12-29T14:49:42;9.20;99.90
13944;DHT22;7044;53.286;8.534;2023-12-29T14:52:09;9.20;99.90
13944;DHT22;7044;53.286;8.534;2023-12-29T14:54:38;9.20;99.90
13944;DHT22;7044;53.286;8.534;2023-12-29T14:57:05;9.10;99.90
13944;DHT22;7044;53.286;8.534;2023-12-29T14:59:32;9.10;99.90
13944;DHT22;7044;53.286;8.534;2023-12-29T15:02:00;9.10;99.90
13944;DHT22;7044;53.286;8.534;2023-12-29T15:04:28;8.40;99.90
13944;DHT22;7044;53.286;8.534;2023-12-29T15:06:58;9.00;99.90
13944;DHT22;7044;53.286;8.534;2023-12-29T15:09:25;9.00;99.90
13944;DHT22;7044;53.286;8.534;2023-12-29T15:11:52;8.90;99.90
13944;DHT22;7044;53.286;8.534;2023-12-29T15:14:19;8.90;99.90
13944;DHT22;7044;53.286;8.534;2023-12-29T15:16:46;8.90;99.90
13944;DHT22;7044;53.286;8.534;2023-12-29T15:19:13;8.90;99.90
13944;DHT22;7044;53.286;8.534;2023-12-29T15:21:40;8.90;99.90
13944;DHT22;7044;53.286;8.534;2023-12-29T15:24:09;10.10;99.90
13944;DHT22;7044;53.286;8.534;2023-12-29T15:26:36;8.80;99.90
13944;DHT22;7044;53.286;8.534;2023-12-29T15:29:03;8.80;99.90
13944;DHT22;7044;53.286;8.534;2023-12-29T15:31:30;8.70;99.90
13944;DHT22;7044;53.286;8.534;2023-12-29T15:33:56;8.70;99.90
13944;DHT22;7044;53.286;8.534;2023-12-29T15:36:23;8.70;99.90
13944;DHT22;7044;53.286;8.534;2023-12-29T15:38:51;8.60;99.90
13944;DHT22;7044;53.286;8.534;2023-12-29T15:41:19;8.60;99.90
13944;DHT22;7044;53.286;8.534;2023-12-29T15:43:46;8.60;99.90
13944;DHT22;7044;53.286;8.534;2023-12-29T15:46:15;8.80;99.90
13944;DHT22;7044;53.286;8.534;2023-12-29T15:48:42;8.60;99.90
13944;DHT22;7044;53.286;8.534;2023-12-29T15:51:09;8.60;99.90
13944;DHT22;7044;53.286;8.534;2023-12-29T15:53:36;8.60;99.90
13944;DHT22;7044;53.286;8.534;2023-12-29T15:56:05;8.60;99.90
13944;DHT22;7044;53.286;8.534;2023-12-29T15:58:33;8.60;99.90
13944;DHT22;7044;53.286;8.534;2023-12-29T16:01:00;8.60;99.90
13944;DHT22;7044;53.286;8.534;2023-12-29T16:03:27;8.90;99.90
13944;DHT22;7044;53.286;8.534;2023-12-29T16:05:57;8.90;99.90
13944;DHT22;7044;53.286;8.534;2023-12-29T16:08:26;9.00;99.90
13944;DHT22;7044;53.286;8.534;2023-12-29T16:10:53;8.90;99.90
13944;DHT22;7044;53.286;8.534;2023-12-29T16:13:20;8.90;99.90
13944;DHT22;7044;53.286;8.534;2023-12-29T16:15:48;8.70;99.90